Fullerville, New York
Current Conditions -  °F | °C
As of 3:58 AM on Thursday 18 Dec 2014 (Local Time) from KGTB Reporting Station
Light Snow Light Snow  
Wind Chill: 23°   Ceiling: 500
Heat Index: 31°   Visibility: 3mi
Dew Point: 30°   Wind: 10mph
Humidity: 94%   Direction: 270°W
Pressure: 29.86"   Gusts: NA
Location:  44.3309°N, 75.4775°W
Report Text: KGTB 180858Z AUTO 27009KT 3SM -SN BR OVC005 00/M01 A2986 RMK AO2 SLP119 P0001 60001 T10031012 51012
Loading
Personal Weather Stations






























Interactive Weather Map New forecast layout! Learn more

10-Day Weather Forecast

Advertisements
Track Severe Weather on mobile